Wilton, New Hampshire
Current Conditions -  °F | °C
As of 8:51 PM on Friday 28 Nov 2014 (Local Time) from KASH Reporting Station
Clear Clear  
Wind Chill: -7°   Ceiling: Unl
Heat Index: -7°   Visibility: 10mi
Dew Point: -8°   Wind: 0mph
Humidity: 92%   Direction: NA
Pressure: 30.19"   Gusts: NA
Location:  42.85°N, 71.74°W
Report Text: KASH 290151Z AUTO 00000KT 10SM CLR M07/M08 A3019 RMK AO2 T10721083 SLP485 $
Loading
Personal Weather Stations






























Interactive Weather Map New forecast layout! Learn more

10-Day Weather Forecast

Advertisements
Track Severe Weather on mobile